NFA1104 EKYT-ENGM
Flight info
| Callsign | NFA1104 |
|---|---|
| Flight time | 0h 46m |
| Altitude | 32000 |
| Route | AAL P622 RETKA DCT PIPEX/N0446F310 M609 RIPAM |
| Aircraft | C25C/M-SDE2E3FGHRWXY/LB1 |
Departure
| Time | 2026-05-07 12:27 |
|---|---|
| Airport | Aalborg Airport (EKYT) |
Arrival
| Time | 2026-05-07 13:13 |
|---|---|
| Airport | Oslo-Gardermoen International Airport (ENGM) |
| Time | Latitude | Longitude | Altitude | Speed | Heading |
|---|---|---|---|---|---|
| 2026-05-07 12:01 | 57.08546 | 9.87193 | 12 ft | 0 kts | 55° |
| 2026-05-07 12:16 | 57.08543 | 9.87187 | 12 ft | 2 kts | 53° |
| 2026-05-07 12:16 | 57.08532 | 9.87164 | 12 ft | 2 kts | 39° |
| 2026-05-07 12:16 | 57.08517 | 9.87152 | 12 ft | 2 kts | 3° |
| 2026-05-07 12:17 | 57.08502 | 9.87160 | 12 ft | 1 kts | 323° |
| 2026-05-07 12:17 | 57.08500 | 9.87164 | 12 ft | 0 kts | 319° |
| 2026-05-07 12:19 | 57.08510 | 9.87147 | 12 ft | 4 kts | 318° |
| 2026-05-07 12:20 | 57.08541 | 9.87090 | 12 ft | 8 kts | 313° |
| 2026-05-07 12:20 | 57.08588 | 9.87002 | 12 ft | 11 kts | 315° |
| 2026-05-07 12:20 | 57.08648 | 9.86894 | 12 ft | 13 kts | 315° |
| 2026-05-07 12:20 | 57.08720 | 9.86775 | 12 ft | 14 kts | 317° |
| 2026-05-07 12:21 | 57.08790 | 9.86674 | 12 ft | 12 kts | 315° |
| 2026-05-07 12:21 | 57.08862 | 9.86568 | 12 ft | 16 kts | 321° |
| 2026-05-07 12:21 | 57.08975 | 9.86397 | 12 ft | 22 kts | 320° |
| 2026-05-07 12:21 | 57.09092 | 9.86229 | 12 ft | 21 kts | 323° |
| 2026-05-07 12:22 | 57.09207 | 9.86066 | 12 ft | 21 kts | 322° |
| 2026-05-07 12:22 | 57.09308 | 9.85933 | 12 ft | 12 kts | 325° |
| 2026-05-07 12:22 | 57.09352 | 9.86017 | 12 ft | 13 kts | 81° |
| 2026-05-07 12:22 | 57.09362 | 9.86188 | 12 ft | 14 kts | 85° |
| 2026-05-07 12:23 | 57.09371 | 9.86381 | 12 ft | 16 kts | 85° |
| 2026-05-07 12:23 | 57.09390 | 9.86592 | 12 ft | 18 kts | 80° |
| 2026-05-07 12:23 | 57.09407 | 9.86820 | 12 ft | 18 kts | 85° |
| 2026-05-07 12:23 | 57.09417 | 9.87058 | 12 ft | 19 kts | 80° |
| 2026-05-07 12:24 | 57.09439 | 9.87303 | 12 ft | 20 kts | 81° |
| 2026-05-07 12:24 | 57.09488 | 9.87711 | 12 ft | 36 kts | 37° |
| 2026-05-07 12:24 | 57.09563 | 9.87741 | 12 ft | 0 kts | 352° |
| 2026-05-07 12:26 | 57.09566 | 9.87740 | 12 ft | 5 kts | 351° |
| 2026-05-07 12:26 | 57.09622 | 9.87680 | 12 ft | 14 kts | 315° |
| 2026-05-07 12:26 | 57.09634 | 9.87412 | 12 ft | 47 kts | 261° |
| 2026-05-07 12:26 | 57.09551 | 9.86182 | 89 ft | 139 kts | 264° |
| 2026-05-07 12:27 | 57.09463 | 9.84363 | 1149 ft | 133 kts | 266° |
| 2026-05-07 12:27 | 57.09413 | 9.82617 | 2182 ft | 148 kts | 269° |
| 2026-05-07 12:27 | 57.09531 | 9.80681 | 2928 ft | 170 kts | 290° |
| 2026-05-07 12:27 | 57.10383 | 9.78702 | 3002 ft | 229 kts | 320° |
| 2026-05-07 12:28 | 57.11997 | 9.77497 | 3222 ft | 269 kts | 347° |
| 2026-05-07 12:28 | 57.13788 | 9.76925 | 3582 ft | 254 kts | 350° |
| 2026-05-07 12:28 | 57.15494 | 9.76383 | 3919 ft | 244 kts | 349° |
| 2026-05-07 12:28 | 57.17151 | 9.75768 | 4195 ft | 242 kts | 348° |
| 2026-05-07 12:29 | 57.18799 | 9.75111 | 4517 ft | 242 kts | 347° |
| 2026-05-07 12:29 | 57.20452 | 9.74491 | 4804 ft | 243 kts | 347° |
| 2026-05-07 12:29 | 57.22106 | 9.73867 | 5052 ft | 243 kts | 347° |
| 2026-05-07 12:29 | 57.23764 | 9.73236 | 5322 ft | 244 kts | 347° |
| 2026-05-07 12:30 | 57.25423 | 9.72592 | 5592 ft | 244 kts | 347° |
| 2026-05-07 12:30 | 57.27089 | 9.71957 | 5855 ft | 245 kts | 347° |
| 2026-05-07 12:30 | 57.28757 | 9.71320 | 6119 ft | 245 kts | 347° |
| 2026-05-07 12:30 | 57.30429 | 9.70691 | 6399 ft | 245 kts | 346° |
| 2026-05-07 12:31 | 57.32112 | 9.70034 | 6664 ft | 257 kts | 346° |
| 2026-05-07 12:31 | 57.34062 | 9.69278 | 7077 ft | 305 kts | 347° |
| 2026-05-07 12:31 | 57.36131 | 9.68484 | 7612 ft | 304 kts | 347° |
| 2026-05-07 12:31 | 57.38083 | 9.67746 | 8074 ft | 276 kts | 347° |
| 2026-05-07 12:32 | 57.39886 | 9.67047 | 8455 ft | 255 kts | 346° |
| 2026-05-07 12:32 | 57.41569 | 9.66403 | 8770 ft | 240 kts | 346° |
| 2026-05-07 12:32 | 57.43245 | 9.65753 | 9263 ft | 260 kts | 346° |
| 2026-05-07 12:32 | 57.45127 | 9.65002 | 10020 ft | 293 kts | 346° |
| 2026-05-07 12:33 | 57.49471 | 9.63318 | 11786 ft | 339 kts | 346° |
| 2026-05-07 12:33 | 57.51829 | 9.62419 | 12811 ft | 352 kts | 346° |
| 2026-05-07 12:33 | 57.54260 | 9.61471 | 13913 ft | 361 kts | 346° |
| 2026-05-07 12:34 | 57.56733 | 9.60528 | 14926 ft | 362 kts | 346° |
| 2026-05-07 12:34 | 57.59190 | 9.59585 | 15949 ft | 359 kts | 345° |
| 2026-05-07 12:34 | 57.61629 | 9.58639 | 16986 ft | 357 kts | 345° |
| 2026-05-07 12:34 | 57.64051 | 9.57683 | 18038 ft | 356 kts | 345° |
| 2026-05-07 12:35 | 57.66473 | 9.56743 | 19008 ft | 355 kts | 345° |
| 2026-05-07 12:35 | 57.68893 | 9.55794 | 19951 ft | 356 kts | 345° |
| 2026-05-07 12:35 | 57.71321 | 9.54849 | 20921 ft | 357 kts | 344° |
| 2026-05-07 12:35 | 57.73752 | 9.53889 | 21922 ft | 359 kts | 344° |
| 2026-05-07 12:36 | 57.76205 | 9.52921 | 22964 ft | 361 kts | 344° |
| 2026-05-07 12:36 | 57.78669 | 9.51955 | 23939 ft | 363 kts | 344° |
| 2026-05-07 12:36 | 57.81115 | 9.50992 | 24749 ft | 365 kts | 343° |
| 2026-05-07 12:36 | 57.83601 | 9.50017 | 25593 ft | 365 kts | 343° |
| 2026-05-07 12:37 | 57.86081 | 9.49033 | 26441 ft | 365 kts | 343° |
| 2026-05-07 12:37 | 57.88565 | 9.48057 | 27250 ft | 365 kts | 343° |
| 2026-05-07 12:37 | 57.91044 | 9.47073 | 28089 ft | 364 kts | 343° |
| 2026-05-07 12:37 | 57.93520 | 9.46096 | 28939 ft | 362 kts | 343° |
| 2026-05-07 12:38 | 57.95913 | 9.45164 | 29644 ft | 338 kts | 343° |
| 2026-05-07 12:38 | 57.98126 | 9.44296 | 30122 ft | 316 kts | 342° |
| 2026-05-07 12:38 | 58.00218 | 9.43410 | 30428 ft | 301 kts | 340° |
| 2026-05-07 12:38 | 58.02214 | 9.42482 | 30686 ft | 290 kts | 340° |
| 2026-05-07 12:39 | 58.04149 | 9.41602 | 30907 ft | 282 kts | 340° |
| 2026-05-07 12:39 | 58.06033 | 9.40754 | 31102 ft | 275 kts | 340° |
| 2026-05-07 12:39 | 58.07873 | 9.39923 | 31274 ft | 269 kts | 340° |
| 2026-05-07 12:39 | 58.09678 | 9.39099 | 31430 ft | 265 kts | 339° |
| 2026-05-07 12:40 | 58.11454 | 9.38289 | 31571 ft | 261 kts | 339° |
| 2026-05-07 12:40 | 58.13209 | 9.37492 | 31701 ft | 258 kts | 339° |
| 2026-05-07 12:40 | 58.14931 | 9.36705 | 31817 ft | 256 kts | 339° |
| 2026-05-07 12:40 | 58.16655 | 9.35919 | 31930 ft | 254 kts | 339° |
| 2026-05-07 12:41 | 58.18368 | 9.35137 | 31986 ft | 254 kts | 339° |
| 2026-05-07 12:41 | 58.20093 | 9.34344 | 32014 ft | 255 kts | 339° |
| 2026-05-07 12:41 | 58.21821 | 9.33555 | 32040 ft | 256 kts | 339° |
| 2026-05-07 12:41 | 58.23556 | 9.32762 | 32074 ft | 257 kts | 339° |
| 2026-05-07 12:42 | 58.25301 | 9.31959 | 32088 ft | 259 kts | 339° |
| 2026-05-07 12:42 | 58.27052 | 9.31158 | 32102 ft | 260 kts | 339° |
| 2026-05-07 12:42 | 58.28877 | 9.30306 | 32131 ft | 281 kts | 339° |
| 2026-05-07 12:42 | 58.30859 | 9.29380 | 32140 ft | 306 kts | 339° |
| 2026-05-07 12:43 | 58.33002 | 9.28400 | 32142 ft | 329 kts | 340° |
| 2026-05-07 12:43 | 58.35302 | 9.27346 | 32147 ft | 349 kts | 340° |
| 2026-05-07 12:43 | 58.37724 | 9.26233 | 32145 ft | 367 kts | 340° |
| 2026-05-07 12:43 | 58.40260 | 9.25060 | 32144 ft | 382 kts | 341° |
| 2026-05-07 12:44 | 58.42877 | 9.23848 | 32140 ft | 395 kts | 341° |
| 2026-05-07 12:44 | 58.45565 | 9.22606 | 32137 ft | 406 kts | 341° |
| 2026-05-07 12:44 | 58.50256 | 9.20428 | 32134 ft | 421 kts | 341° |
| 2026-05-07 12:45 | 58.56038 | 9.17735 | 32131 ft | 434 kts | 341° |
| 2026-05-07 12:45 | 58.61962 | 9.14965 | 32127 ft | 442 kts | 341° |
| 2026-05-07 12:46 | 58.67981 | 9.12139 | 32126 ft | 448 kts | 341° |
| 2026-05-07 12:46 | 58.74140 | 9.09795 | 32122 ft | 458 kts | 348° |
| 2026-05-07 12:47 | 58.80587 | 9.09788 | 32120 ft | 470 kts | 360° |
| 2026-05-07 12:47 | 58.87017 | 9.12443 | 32113 ft | 482 kts | 12° |
| 2026-05-07 12:48 | 58.90071 | 9.14756 | 32112 ft | 459 kts | 18° |
| 2026-05-07 12:48 | 58.92851 | 9.17522 | 32102 ft | 445 kts | 24° |
| 2026-05-07 12:48 | 58.97898 | 9.24492 | 32090 ft | 447 kts | 32° |
| 2026-05-07 12:49 | 59.02822 | 9.32073 | 32097 ft | 456 kts | 32° |
| 2026-05-07 12:49 | 59.07817 | 9.39852 | 32104 ft | 463 kts | 32° |
| 2026-05-07 12:50 | 59.12871 | 9.47728 | 32095 ft | 468 kts | 32° |
| 2026-05-07 12:50 | 59.17963 | 9.55705 | 32101 ft | 471 kts | 32° |
| 2026-05-07 12:51 | 59.23352 | 9.62812 | 32099 ft | 459 kts | 27° |
| 2026-05-07 12:51 | 59.25896 | 9.66164 | 32090 ft | 424 kts | 26° |
| 2026-05-07 12:51 | 59.28247 | 9.69223 | 32075 ft | 390 kts | 25° |
| 2026-05-07 12:52 | 59.30442 | 9.72022 | 32076 ft | 363 kts | 24° |
| 2026-05-07 12:52 | 59.32484 | 9.74635 | 32073 ft | 339 kts | 24° |
| 2026-05-07 12:52 | 59.34386 | 9.77102 | 32070 ft | 317 kts | 23° |
| 2026-05-07 12:52 | 59.36083 | 9.79745 | 32062 ft | 309 kts | 36° |
| 2026-05-07 12:53 | 59.37616 | 9.82420 | 32064 ft | 280 kts | 22° |
| 2026-05-07 12:53 | 59.39280 | 9.84108 | 31705 ft | 267 kts | 7° |
| 2026-05-07 12:53 | 59.41113 | 9.84827 | 31174 ft | 270 kts | 351° |
| 2026-05-07 12:53 | 59.43030 | 9.84797 | 30685 ft | 284 kts | 348° |
| 2026-05-07 12:54 | 59.45049 | 9.84803 | 30413 ft | 290 kts | 348° |
| 2026-05-07 12:54 | 59.47079 | 9.84596 | 30023 ft | 301 kts | 350° |
| 2026-05-07 12:54 | 59.49218 | 9.84763 | 29550 ft | 310 kts | 350° |
| 2026-05-07 12:54 | 59.51364 | 9.84596 | 29061 ft | 316 kts | 347° |
| 2026-05-07 12:55 | 59.53626 | 9.84764 | 28496 ft | 335 kts | 357° |
| 2026-05-07 12:55 | 59.55960 | 9.85611 | 28044 ft | 349 kts | 6° |
| 2026-05-07 12:55 | 59.58294 | 9.87202 | 27572 ft | 362 kts | 14° |
| 2026-05-07 12:55 | 59.60619 | 9.89625 | 27129 ft | 398 kts | 24° |
| 2026-05-07 12:56 | 59.62943 | 9.92741 | 26746 ft | 402 kts | 27° |
| 2026-05-07 12:56 | 59.65240 | 9.95810 | 26332 ft | 394 kts | 27° |
| 2026-05-07 12:56 | 59.67525 | 9.98860 | 25837 ft | 397 kts | 27° |
| 2026-05-07 12:56 | 59.69804 | 10.01927 | 25303 ft | 396 kts | 27° |
| 2026-05-07 12:57 | 59.72072 | 10.04996 | 24793 ft | 394 kts | 27° |
| 2026-05-07 12:57 | 59.74329 | 10.08047 | 24289 ft | 393 kts | 27° |
| 2026-05-07 12:57 | 59.76604 | 10.11118 | 23769 ft | 398 kts | 28° |
| 2026-05-07 12:57 | 59.78872 | 10.14193 | 23192 ft | 392 kts | 28° |
| 2026-05-07 12:58 | 59.81082 | 10.17211 | 22589 ft | 376 kts | 28° |
| 2026-05-07 12:58 | 59.83183 | 10.20075 | 21984 ft | 356 kts | 28° |
| 2026-05-07 12:58 | 59.85174 | 10.22781 | 21421 ft | 339 kts | 27° |
| 2026-05-07 12:58 | 59.87082 | 10.25370 | 20921 ft | 325 kts | 27° |
| 2026-05-07 12:59 | 59.88917 | 10.27881 | 20432 ft | 325 kts | 28° |
| 2026-05-07 12:59 | 59.90861 | 10.30498 | 19963 ft | 346 kts | 28° |
| 2026-05-07 12:59 | 59.92858 | 10.33244 | 19511 ft | 347 kts | 29° |
| 2026-05-07 12:59 | 59.94828 | 10.35974 | 19085 ft | 342 kts | 29° |
| 2026-05-07 13:00 | 59.96772 | 10.38648 | 18664 ft | 338 kts | 29° |
| 2026-05-07 13:00 | 59.98699 | 10.41286 | 18210 ft | 335 kts | 29° |
| 2026-05-07 13:00 | 60.00611 | 10.43915 | 17697 ft | 332 kts | 30° |
| 2026-05-07 13:00 | 60.02501 | 10.46528 | 17235 ft | 329 kts | 30° |
| 2026-05-07 13:01 | 60.04372 | 10.49118 | 16777 ft | 326 kts | 30° |
| 2026-05-07 13:01 | 60.06233 | 10.51686 | 16300 ft | 324 kts | 30° |
| 2026-05-07 13:01 | 60.08087 | 10.54250 | 15635 ft | 322 kts | 31° |
| 2026-05-07 13:01 | 60.09925 | 10.56802 | 14971 ft | 323 kts | 31° |
| 2026-05-07 13:02 | 60.11772 | 10.59369 | 14339 ft | 322 kts | 31° |
| 2026-05-07 13:02 | 60.13630 | 10.61949 | 13229 ft | 330 kts | 31° |
| 2026-05-07 13:02 | 60.15456 | 10.64500 | 12879 ft | 312 kts | 32° |
| 2026-05-07 13:02 | 60.17198 | 10.66932 | 12433 ft | 296 kts | 31° |
| 2026-05-07 13:03 | 60.18831 | 10.69218 | 12027 ft | 277 kts | 32° |
| 2026-05-07 13:03 | 60.20371 | 10.71366 | 11647 ft | 262 kts | 31° |
| 2026-05-07 13:03 | 60.21847 | 10.73434 | 11288 ft | 254 kts | 32° |
| 2026-05-07 13:03 | 60.23269 | 10.75419 | 10799 ft | 248 kts | 32° |
| 2026-05-07 13:04 | 60.24653 | 10.77357 | 10496 ft | 237 kts | 32° |
| 2026-05-07 13:04 | 60.25993 | 10.79248 | 9987 ft | 236 kts | 32° |
| 2026-05-07 13:04 | 60.27353 | 10.81151 | 9306 ft | 240 kts | 33° |
| 2026-05-07 13:04 | 60.28729 | 10.83093 | 8636 ft | 243 kts | 33° |
| 2026-05-07 13:05 | 60.30120 | 10.85070 | 7863 ft | 244 kts | 33° |
| 2026-05-07 13:05 | 60.31447 | 10.86959 | 7046 ft | 226 kts | 34° |
| 2026-05-07 13:05 | 60.32694 | 10.88733 | 6119 ft | 215 kts | 33° |
| 2026-05-07 13:05 | 60.33762 | 10.90898 | 4839 ft | 222 kts | 59° |
| 2026-05-07 13:06 | 60.34460 | 10.93732 | 4081 ft | 230 kts | 64° |
| 2026-05-07 13:06 | 60.35113 | 10.96570 | 4009 ft | 211 kts | 65° |
| 2026-05-07 13:06 | 60.35675 | 10.99045 | 4007 ft | 183 kts | 64° |
| 2026-05-07 13:06 | 60.36206 | 11.01408 | 3756 ft | 186 kts | 65° |
| 2026-05-07 13:07 | 60.36752 | 11.03802 | 3588 ft | 191 kts | 65° |
| 2026-05-07 13:07 | 60.37305 | 11.06255 | 3548 ft | 191 kts | 65° |
| 2026-05-07 13:07 | 60.37850 | 11.08667 | 3530 ft | 187 kts | 65° |
| 2026-05-07 13:07 | 60.38387 | 11.11069 | 3514 ft | 187 kts | 66° |
| 2026-05-07 13:08 | 60.38483 | 11.13648 | 3501 ft | 189 kts | 103° |
| 2026-05-07 13:08 | 60.38154 | 11.16209 | 3510 ft | 188 kts | 106° |
| 2026-05-07 13:08 | 60.37372 | 11.18172 | 3499 ft | 183 kts | 156° |
| 2026-05-07 13:08 | 60.36136 | 11.18105 | 3504 ft | 186 kts | 206° |
| 2026-05-07 13:09 | 60.34967 | 11.16913 | 3475 ft | 193 kts | 199° |
| 2026-05-07 13:09 | 60.33684 | 11.16193 | 3237 ft | 182 kts | 198° |
| 2026-05-07 13:09 | 60.32537 | 11.15488 | 2993 ft | 170 kts | 197° |
| 2026-05-07 13:09 | 60.31364 | 11.14809 | 2750 ft | 182 kts | 196° |
| 2026-05-07 13:10 | 60.30136 | 11.14104 | 2503 ft | 184 kts | 198° |
| 2026-05-07 13:10 | 60.28907 | 11.13401 | 2262 ft | 185 kts | 194° |
| 2026-05-07 13:10 | 60.27706 | 11.12667 | 2001 ft | 178 kts | 198° |
| 2026-05-07 13:10 | 60.26554 | 11.12021 | 1752 ft | 165 kts | 195° |
| 2026-05-07 13:11 | 60.25508 | 11.11424 | 1572 ft | 142 kts | 197° |
| 2026-05-07 13:11 | 60.24638 | 11.10914 | 1373 ft | 125 kts | 197° |
| 2026-05-07 13:11 | 60.23811 | 11.10439 | 1214 ft | 122 kts | 198° |
| 2026-05-07 13:11 | 60.23007 | 11.09974 | 1032 ft | 118 kts | 198° |
| 2026-05-07 13:12 | 60.22217 | 11.09525 | 859 ft | 118 kts | 199° |
| 2026-05-07 13:12 | 60.21430 | 11.09069 | 697 ft | 116 kts | 198° |
| 2026-05-07 13:12 | 60.20722 | 11.08665 | 674 ft | 93 kts | 199° |
| 2026-05-07 13:12 | 60.20178 | 11.08338 | 670 ft | 70 kts | 196° |
| 2026-05-07 13:13 | 60.19850 | 11.08148 | 667 ft | 24 kts | 197° |
| 2026-05-07 13:13 | 60.19788 | 11.07966 | 667 ft | 17 kts | 283° |
| 2026-05-07 13:13 | 60.19823 | 11.07819 | 667 ft | 10 kts | 334° |
| 2026-05-07 13:13 | 60.19881 | 11.07802 | 668 ft | 8 kts | 354° |
| 2026-05-07 13:14 | 60.19911 | 11.07772 | 668 ft | 2 kts | 255° |
| 2026-05-07 13:14 | 60.19910 | 11.07752 | 668 ft | 1 kts | 266° |
| 2026-05-07 13:14 | 60.19909 | 11.07730 | 668 ft | 3 kts | 266° |
| 2026-05-07 13:14 | 60.19906 | 11.07672 | 668 ft | 5 kts | 264° |
| 2026-05-07 13:15 | 60.19905 | 11.07656 | 668 ft | 0 kts | 264° |